Time,TemperatureF,DewpointF,PressureIn,WindDirection,WindDirectionDegrees,WindSpeedMPH,WindSpeedGustMPH,Humidity,HourlyPrecipIn,Conditions,Clouds,dailyrainin,SolarRadiationWatts/m^2,SoftwareType,DateUTC
2013-02-08 00:04:00,25.3,24.1,28.64,NW,315,0.0,0.0,95,0.00,RA,FEW,0.00,0.0,WeatherDisplay:10.37,2013-02-07 23:04:00,
2013-02-08 00:09:00,25.7,24.5,28.61,NW,320,0.0,0.0,95,0.00,CLR,FEW,0.00,0.0,WeatherDisplay:10.37,2013-02-07 23:09:00,
2013-02-08 00:14:00,25.3,24.1,28.61,NW,320,0.0,0.0,95,0.00,CLR,FEW,0.00,0.0,WeatherDisplay:10.37,2013-02-07 23:14:00,
2013-02-08 00:19:00,25.3,24.1,28.61,NW,320,0.0,0.0,95,0.00,CLR,FEW,0.00,0.0,WeatherDisplay:10.37,2013-02-07 23:19:00,
2013-02-08 00:24:00,25.3,24.1,28.64,NW,325,0.0,0.0,95,0.00,CLR,FEW,0.00,0.0,WeatherDisplay:10.37,2013-02-07 23:24:00,
2013-02-08 00:29:00,24.8,23.6,28.64,NW,310,0.0,0.0,95,0.00,CLR,FEW,0.00,0.0,WeatherDisplay:10.37,2013-02-07 23:29:00,
2013-02-08 00:34:00,24.8,23.6,28.64,NW,310,0.0,0.0,95,0.00,CLR,FEW,0.00,0.0,WeatherDisplay:10.37,2013-02-07 23:34:00,
2013-02-08 00:40:00,25.0,23.8,28.64,NW,320,0.0,0.0,95,0.00,CLR,FEW,0.00,0.0,WeatherDisplay:10.37,2013-02-07 23:40:00,
2013-02-08 00:45:00,25.2,23.9,28.64,NW,310,0.0,0.0,95,0.00,CLR,FEW,0.00,0.0,WeatherDisplay:10.37,2013-02-07 23:45:00,
2013-02-08 00:50:00,25.3,24.1,28.61,NW,325,0.0,0.0,95,0.00,CLR,FEW,0.00,0.0,WeatherDisplay:10.37,2013-02-07 23:50:00,
2013-02-08 00:55:00,25.3,24.1,28.61,NW,325,0.0,0.0,95,0.00,CLR,FEW,0.00,0.0,WeatherDisplay:10.37,2013-02-07 23:55:00,
2013-02-08 01:00:00,25.7,24.5,28.61,NNW,328,0.0,0.0,95,0.00,CLR,FEW,0.00,0.0,WeatherDisplay:10.37,2013-02-08 00:00:00,
2013-02-08 01:05:00,25.7,24.5,28.61,NNW,330,0.0,0.0,95,0.00,CLR,FEW,0.00,0.0,WeatherDisplay:10.37,2013-02-08 00:05:00,
2013-02-08 01:10:00,25.9,24.6,28.64,NW,325,0.0,0.0,95,0.00,CLR,FEW,0.00,0.0,WeatherDisplay:10.37,2013-02-08 00:10:00,
2013-02-08 01:15:00,25.9,24.6,28.64,NW,325,0.0,0.0,95,0.00,CLR,FEW,0.00,0.0,WeatherDisplay:10.37,2013-02-08 00:15:00,
2013-02-08 01:20:00,25.7,24.5,28.61,NNW,340,0.0,0.0,95,0.00,CLR,FEW,0.00,0.0,WeatherDisplay:10.37,2013-02-08 00:20:00,
2013-02-08 01:25:00,25.7,24.5,28.61,NNW,340,0.0,0.0,95,0.00,CLR,FEW,0.00,0.0,WeatherDisplay:10.37,2013-02-08 00:25:00,
2013-02-08 01:30:00,25.7,24.5,28.61,WNW,300,1.1,1.7,95,0.00,CLR,FEW,0.00,0.0,WeatherDisplay:10.37,2013-02-08 00:30:00,
2013-02-08 01:35:00,25.7,24.5,28.61,North,355,0.0,0.0,95,0.00,CLR,FEW,0.00,0.0,WeatherDisplay:10.37,2013-02-08 00:35:00,
2013-02-08 01:40:00,25.2,23.9,28.61,NW,325,0.0,0.0,95,0.00,CLR,FEW,0.00,0.0,WeatherDisplay:10.37,2013-02-08 00:40:00,
2013-02-08 01:45:00,24.8,23.6,28.61,NNW,335,0.0,0.0,95,0.00,CLR,FEW,0.00,0.0,WeatherDisplay:10.37,2013-02-08 00:45:00,
2013-02-08 01:50:00,24.8,23.6,28.64,NW,320,0.0,0.0,95,0.00,CLR,FEW,0.00,0.0,WeatherDisplay:10.37,2013-02-08 00:50:00,
2013-02-08 01:55:00,24.8,23.6,28.64,NW,320,0.0,0.0,95,0.00,CLR,FEW,0.00,0.0,WeatherDisplay:10.37,2013-02-08 00:55:00,
2013-02-08 02:00:00,25.0,23.8,28.64,NW,310,0.0,0.0,95,0.00,CLR,FEW,0.00,0.0,WeatherDisplay:10.37,2013-02-08 01:00:00,
2013-02-08 02:05:00,24.6,23.4,28.64,NW,315,0.0,0.0,95,0.00,CLR,FEW,0.00,0.0,WeatherDisplay:10.37,2013-02-08 01:05:00,
2013-02-08 02:10:00,24.1,22.9,28.64,NW,310,0.0,0.0,95,0.00,CLR,FEW,0.00,0.0,WeatherDisplay:10.37,2013-02-08 01:10:00,
2013-02-08 02:15:00,24.3,23.0,28.64,NW,315,0.0,0.0,95,0.00,CLR,FEW,0.00,0.0,WeatherDisplay:10.37,2013-02-08 01:15:00,
2013-02-08 02:20:00,24.3,23.0,28.64,NW,315,0.0,0.0,95,0.00,CLR,FEW,0.00,0.0,WeatherDisplay:10.37,2013-02-08 01:20:00,
2013-02-08 02:25:00,24.3,23.0,28.64,NW,315,0.0,0.0,95,0.00,CLR,FEW,0.00,0.0,WeatherDisplay:10.37,2013-02-08 01:25:00,
2013-02-08 02:30:00,24.1,22.9,28.64,WNW,300,0.0,0.0,95,0.00,CLR,FEW,0.00,0.0,WeatherDisplay:10.37,2013-02-08 01:30:00,
2013-02-08 02:35:00,24.1,22.9,28.64,West,270,0.0,0.0,95,0.00,CLR,FEW,0.00,0.0,WeatherDisplay:10.37,2013-02-08 01:35:00,
2013-02-08 02:40:00,24.1,22.9,28.64,West,270,0.0,0.0,95,0.00,CLR,FEW,0.00,0.0,WeatherDisplay:10.37,2013-02-08 01:40:00,
2013-02-08 02:45:00,24.3,23.0,28.64,West,270,0.0,0.0,95,0.00,CLR,FEW,0.00,0.0,WeatherDisplay:10.37,2013-02-08 01:45:00,
2013-02-08 02:50:00,24.6,23.4,28.64,West,270,0.0,0.0,95,0.00,CLR,FEW,0.00,0.0,WeatherDisplay:10.37,2013-02-08 01:50:00,
2013-02-08 02:55:00,24.6,23.4,28.64,West,270,0.0,0.0,95,0.00,CLR,FEW,0.00,0.0,WeatherDisplay:10.37,2013-02-08 01:55:00,
2013-02-08 03:00:00,24.8,23.6,28.64,West,260,0.0,0.0,95,0.00,CLR,FEW,0.00,0.0,WeatherDisplay:10.37,2013-02-08 02:00:00,
2013-02-08 03:05:00,24.4,23.2,28.64,West,260,0.0,0.0,95,0.00,CLR,FEW,0.00,0.0,WeatherDisplay:10.37,2013-02-08 02:05:00,
2013-02-08 03:10:00,25.0,23.8,28.61,NW,315,0.0,0.0,95,0.00,CLR,FEW,0.00,0.0,WeatherDisplay:10.37,2013-02-08 02:10:00,
2013-02-08 03:15:00,24.6,23.4,28.61,NW,315,0.0,0.0,95,0.00,CLR,FEW,0.00,0.0,WeatherDisplay:10.37,2013-02-08 02:15:00,
2013-02-08 03:20:00,24.6,23.4,28.61,West,270,0.0,0.0,95,0.00,CLR,FEW,0.00,0.0,WeatherDisplay:10.37,2013-02-08 02:20:00,
2013-02-08 03:25:00,24.6,23.4,28.61,West,270,0.0,0.0,95,0.00,CLR,FEW,0.00,0.0,WeatherDisplay:10.37,2013-02-08 02:25:00,
2013-02-08 03:30:00,24.8,23.6,28.61,NW,325,0.0,0.0,95,0.00,CLR,FEW,0.00,0.0,WeatherDisplay:10.37,2013-02-08 02:30:00,
2013-02-08 03:35:00,24.4,23.2,28.61,NW,315,0.0,0.0,95,0.00,CLR,FEW,0.00,0.0,WeatherDisplay:10.37,2013-02-08 02:35:00,
2013-02-08 03:40:00,24.4,23.2,28.61,NW,305,0.0,0.0,95,0.00,CLR,FEW,0.00,0.0,WeatherDisplay:10.37,2013-02-08 02:40:00,
2013-02-08 03:45:00,24.8,23.6,28.61,NW,315,0.0,0.0,95,0.00,CLR,FEW,0.00,0.0,WeatherDisplay:10.37,2013-02-08 02:45:00,
2013-02-08 03:50:00,24.1,22.9,28.64,WNW,300,0.0,0.0,95,0.00,CLR,FEW,0.00,0.0,WeatherDisplay:10.37,2013-02-08 02:50:00,
2013-02-08 03:55:00,24.1,22.9,28.64,WNW,300,0.0,0.0,95,0.00,CLR,FEW,0.00,0.0,WeatherDisplay:10.37,2013-02-08 02:55:00,
2013-02-08 04:00:00,24.1,22.9,28.64,WNW,300,0.0,0.0,95,0.00,CLR,FEW,0.00,0.0,WeatherDisplay:10.37,2013-02-08 03:00:00,
2013-02-08 04:05:00,24.3,23.0,28.64,NNW,335,0.0,0.0,95,0.00,CLR,FEW,0.00,0.0,WeatherDisplay:10.37,2013-02-08 03:05:00,
2013-02-08 04:10:00,24.4,23.2,28.61,North,355,0.0,0.0,95,0.00,CLR,FEW,0.00,0.0,WeatherDisplay:10.37,2013-02-08 03:10:00,
2013-02-08 04:15:00,23.9,22.7,28.61,NNW,335,0.0,0.0,95,0.00,CLR,FEW,0.00,0.0,WeatherDisplay:10.37,2013-02-08 03:15:00,
2013-02-08 04:20:00,23.9,22.7,28.61,North,0,0.0,0.0,95,0.00,CLR,FEW,0.00,0.0,WeatherDisplay:10.37,2013-02-08 03:20:00,
2013-02-08 04:25:00,23.9,22.7,28.61,North,0,0.0,0.0,95,0.00,CLR,FEW,0.00,0.0,WeatherDisplay:10.37,2013-02-08 03:25:00,
2013-02-08 04:30:00,23.7,22.2,28.61,NNW,335,0.0,0.0,94,0.00,CLR,FEW,0.00,0.0,WeatherDisplay:10.37,2013-02-08 03:30:00,
2013-02-08 04:35:00,23.9,22.7,28.61,NW,315,0.0,0.0,95,0.00,CLR,FEW,0.00,0.0,WeatherDisplay:10.37,2013-02-08 03:35:00,
2013-02-08 04:40:00,24.1,22.9,28.64,NW,310,0.0,0.0,95,0.00,CLR,FEW,0.00,0.0,WeatherDisplay:10.37,2013-02-08 03:40:00,
2013-02-08 04:45:00,24.3,23.0,28.64,WNW,285,0.0,0.0,95,0.00,CLR,FEW,0.00,0.0,WeatherDisplay:10.37,2013-02-08 03:45:00,
2013-02-08 04:50:00,24.6,23.4,28.64,WNW,285,0.0,0.0,95,0.00,CLR,FEW,0.00,0.0,WeatherDisplay:10.37,2013-02-08 03:50:00,
2013-02-08 04:55:00,24.6,23.4,28.64,WNW,285,0.0,0.0,95,0.00,CLR,FEW,0.00,0.0,WeatherDisplay:10.37,2013-02-08 03:55:00,
2013-02-08 05:00:00,24.8,23.6,28.64,NW,320,0.0,0.0,95,0.00,CLR,FEW,0.00,0.0,WeatherDisplay:10.37,2013-02-08 04:00:00,
2013-02-08 05:05:00,24.3,23.0,28.64,West,275,0.0,0.0,95,0.00,CLR,FEW,0.00,0.0,WeatherDisplay:10.37,2013-02-08 04:05:00,
2013-02-08 05:10:00,24.1,22.9,28.64,SW,230,1.1,1.1,95,0.00,CLR,FEW,0.00,0.0,WeatherDisplay:10.37,2013-02-08 04:10:00,
2013-02-08 05:15:00,24.1,22.9,28.64,SW,220,0.0,0.0,95,0.00,CLR,FEW,0.00,0.0,WeatherDisplay:10.37,2013-02-08 04:15:00,
2013-02-08 05:20:00,23.5,22.1,28.64,SW,235,0.0,0.0,94,0.00,CLR,FEW,0.00,0.0,WeatherDisplay:10.37,2013-02-08 04:20:00,
2013-02-08 05:25:00,23.5,22.1,28.64,SW,235,0.0,0.0,94,0.00,CLR,FEW,0.00,0.0,WeatherDisplay:10.37,2013-02-08 04:25:00,
2013-02-08 05:30:00,24.1,22.9,28.64,NNW,335,0.0,0.0,95,0.00,CLR,FEW,0.00,0.0,WeatherDisplay:10.37,2013-02-08 04:30:00,
2013-02-08 05:35:00,22.6,21.2,28.64,WSW,250,0.0,0.0,94,0.00,CLR,FEW,0.00,0.0,WeatherDisplay:10.37,2013-02-08 04:35:00,
2013-02-08 05:40:00,22.6,21.2,28.64,West,260,0.0,0.0,94,0.00,CLR,FEW,0.00,0.0,WeatherDisplay:10.37,2013-02-08 04:40:00,
2013-02-08 05:45:00,23.4,21.9,28.64,WSW,255,0.0,0.0,94,0.00,CLR,FEW,0.00,0.0,WeatherDisplay:10.37,2013-02-08 04:45:00,
2013-02-08 05:50:00,23.5,22.1,28.61,WNW,285,0.0,0.0,94,0.00,CLR,FEW,0.00,0.0,WeatherDisplay:10.37,2013-02-08 04:50:00,
2013-02-08 05:55:00,23.5,22.1,28.61,WNW,285,0.0,0.0,94,0.00,CLR,FEW,0.00,0.0,WeatherDisplay:10.37,2013-02-08 04:55:00,
2013-02-08 06:00:00,22.8,21.4,28.61,WSW,240,0.0,0.0,94,0.00,CLR,FEW,0.00,0.0,WeatherDisplay:10.37,2013-02-08 05:00:00,
2013-02-08 06:01:00,23.0,21.5,28.61,WSW,240,0.0,0.0,94,0.00,CLR,FEW,0.00,0.0,WeatherDisplay:10.37,2013-02-08 05:01:00,
2013-02-08 06:03:00,23.0,21.5,28.61,WSW,240,0.0,0.0,94,0.00,CLR,FEW,0.00,0.0,WeatherDisplay:10.37,2013-02-08 05:03:00,
2013-02-08 06:08:00,23.0,21.5,28.64,West,260,0.0,0.0,94,0.00,CLR,FEW,0.00,0.0,WeatherDisplay:10.37,2013-02-08 05:08:00,
2013-02-08 06:13:00,23.0,21.5,28.64,West,260,0.0,0.0,94,0.00,CLR,FEW,0.00,0.0,WeatherDisplay:10.37,2013-02-08 05:13:00,
2013-02-08 06:18:00,23.5,22.1,28.64,WSW,250,0.0,0.0,94,0.00,CLR,FEW,0.00,0.0,WeatherDisplay:10.37,2013-02-08 05:18:00,
2013-02-08 06:23:00,24.3,22.8,28.64,WSW,250,0.0,0.0,94,0.00,CLR,FEW,0.00,0.0,WeatherDisplay:10.37,2013-02-08 05:23:00,
2013-02-08 06:28:00,24.3,22.8,28.64,NNE,30,0.0,0.0,94,0.00,CLR,FEW,0.00,0.0,WeatherDisplay:10.37,2013-02-08 05:28:00,
2013-02-08 06:33:00,24.3,22.8,28.64,NW,305,2.3,2.4,94,0.00,CLR,FEW,0.00,0.0,WeatherDisplay:10.37,2013-02-08 05:33:00,
2013-02-08 06:38:00,24.3,22.8,28.64,NW,305,2.3,2.4,94,0.00,CLR,FEW,0.00,0.0,WeatherDisplay:10.37,2013-02-08 05:38:00,
2013-02-08 06:43:00,23.9,22.4,28.67,NNE,15,1.1,1.5,94,0.00,CLR,FEW,0.00,0.0,WeatherDisplay:10.37,2013-02-08 05:43:00,
2013-02-08 06:48:00,23.9,22.4,28.67,NNW,335,0.0,0.0,94,0.00,CLR,FEW,0.00,0.0,WeatherDisplay:10.37,2013-02-08 05:48:00,
2013-02-08 06:53:00,24.1,22.6,28.64,NW,325,0.0,0.0,94,0.00,CLR,FEW,0.00,0.0,WeatherDisplay:10.37,2013-02-08 05:53:00,
2013-02-08 06:58:00,24.1,22.6,28.64,NW,325,0.0,0.0,94,0.00,CLR,FEW,0.00,0.0,WeatherDisplay:10.37,2013-02-08 05:58:00,
2013-02-08 07:03:00,24.3,22.8,28.64,NNW,340,0.0,0.0,94,0.00,OVC,FEW,0.00,0.0,WeatherDisplay:10.37,2013-02-08 06:03:00,
2013-02-08 07:08:00,24.3,22.8,28.64,NNW,340,0.0,0.0,94,0.00,OVC,FEW,0.00,0.0,WeatherDisplay:10.37,2013-02-08 06:08:00,
2013-02-08 07:13:00,24.3,22.8,28.64,NNW,340,0.0,0.0,94,0.00,OVC,FEW,0.00,0.0,WeatherDisplay:10.37,2013-02-08 06:13:00,
2013-02-08 07:18:00,24.3,22.8,28.64,WNW,295,0.0,0.0,94,0.00,OVC,FEW,0.00,0.0,WeatherDisplay:10.37,2013-02-08 06:18:00,
2013-02-08 07:23:00,24.4,23.0,28.67,NW,325,0.0,0.0,94,0.00,OVC,FEW,0.00,0.0,WeatherDisplay:10.37,2013-02-08 06:23:00,
2013-02-08 07:28:00,24.4,23.0,28.67,NW,325,0.0,0.0,94,0.00,OVC,FEW,0.00,0.0,WeatherDisplay:10.37,2013-02-08 06:28:00,
2013-02-08 07:33:00,24.6,23.1,28.67,NW,325,0.0,0.0,94,0.00,OVC,FEW,0.00,0.0,WeatherDisplay:10.37,2013-02-08 06:33:00,
2013-02-08 07:38:00,25.0,23.8,28.64,NW,320,0.0,0.0,95,0.00,OVC,FEW,0.00,0.0,WeatherDisplay:10.37,2013-02-08 06:38:00,
2013-02-08 07:43:00,25.0,23.8,28.64,NW,320,0.0,0.0,95,0.00,OVC,FEW,0.00,0.0,WeatherDisplay:10.37,2013-02-08 06:43:00,
2013-02-08 07:48:00,25.3,23.9,28.64,WNW,285,0.0,0.0,94,0.00,OVC,FEW,0.00,0.0,WeatherDisplay:10.37,2013-02-08 06:48:00,
2013-02-08 07:53:00,25.3,23.9,28.67,NW,325,0.0,0.0,94,0.00,OVC,FEW,0.00,0.0,WeatherDisplay:10.37,2013-02-08 06:53:00,
2013-02-08 07:58:00,25.9,24.4,28.67,WNW,300,1.1,1.1,94,0.00,OVC,FEW,0.00,0.0,WeatherDisplay:10.37,2013-02-08 06:58:00,
2013-02-08 08:03:00,26.1,24.6,28.67,NNW,330,0.0,0.0,94,0.00,OVC,FEW,0.00,0.0,WeatherDisplay:10.37,2013-02-08 07:03:00,
2013-02-08 08:08:00,26.2,24.7,28.67,NNW,335,0.0,0.4,94,0.00,OVC,FEW,0.00,0.0,WeatherDisplay:10.37,2013-02-08 07:08:00,
2013-02-08 08:13:00,26.2,24.5,28.67,NNW,335,0.0,0.0,93,0.00,OVC,FEW,0.00,0.0,WeatherDisplay:10.37,2013-02-08 07:13:00,
2013-02-08 08:18:00,26.2,24.5,28.67,NNW,335,0.0,0.0,93,0.00,OVC,FEW,0.00,0.0,WeatherDisplay:10.37,2013-02-08 07:18:00,
2013-02-08 08:23:00,26.6,24.8,28.67,NW,320,0.0,0.0,93,0.00,OVC,FEW,0.00,0.0,WeatherDisplay:10.37,2013-02-08 07:23:00,
2013-02-08 08:28:00,26.6,24.8,28.67,NW,320,0.0,0.0,93,0.00,OVC,FEW,0.00,0.0,WeatherDisplay:10.37,2013-02-08 07:28:00,
2013-02-08 08:33:00,27.3,25.6,28.67,NNW,330,0.0,0.0,93,0.00,OVC,FEW,0.00,0.0,WeatherDisplay:10.37,2013-02-08 07:33:00,
2013-02-08 08:38:00,27.5,25.7,28.67,NNE,15,0.0,0.0,93,0.00,OVC,FEW,0.00,0.0,WeatherDisplay:10.37,2013-02-08 07:38:00,
2013-02-08 08:43:00,27.5,25.7,28.67,NNE,15,0.0,0.0,93,0.00,OVC,FEW,0.00,0.0,WeatherDisplay:10.37,2013-02-08 07:43:00,
2013-02-08 08:48:00,27.9,25.8,28.67,NNW,345,0.0,0.0,92,0.00,OVC,FEW,0.00,0.0,WeatherDisplay:10.37,2013-02-08 07:48:00,
2013-02-08 08:53:00,28.2,26.2,28.67,NNW,335,0.0,0.0,92,0.00,OVC,FEW,0.00,0.0,WeatherDisplay:10.37,2013-02-08 07:53:00,
2013-02-08 08:58:00,28.2,25.9,28.67,NNW,330,0.0,0.2,91,0.00,OVC,FEW,0.00,0.0,WeatherDisplay:10.37,2013-02-08 07:58:00,
2013-02-08 09:03:00,28.9,26.6,28.67,NNW,335,0.0,0.4,91,0.00,OVC,FEW,0.00,0.0,WeatherDisplay:10.37,2013-02-08 08:03:00,
2013-02-08 09:08:00,28.9,26.6,28.67,NNW,335,0.0,0.4,91,0.00,OVC,FEW,0.00,0.0,WeatherDisplay:10.37,2013-02-08 08:08:00,
2013-02-08 09:13:00,29.3,26.2,28.67,NE,35,5.8,5.8,88,0.00,OVC,FEW,0.00,0.0,WeatherDisplay:10.37,2013-02-08 08:13:00,
2013-02-08 09:18:00,29.3,26.2,28.67,NE,35,5.8,5.8,88,0.00,OVC,FEW,0.00,0.0,WeatherDisplay:10.37,2013-02-08 08:18:00,
2013-02-08 09:23:00,29.8,26.4,28.67,NNE,15,1.1,1.7,87,0.00,OVC,FEW,0.00,0.0,WeatherDisplay:10.37,2013-02-08 08:23:00,
2013-02-08 09:28:00,29.8,26.4,28.67,NNE,25,6.9,6.9,87,0.00,OVC,FEW,0.00,0.0,WeatherDisplay:10.37,2013-02-08 08:28:00,
2013-02-08 09:33:00,30.2,26.5,28.67,NNE,25,4.6,4.6,86,0.00,OVC,FEW,0.00,0.0,WeatherDisplay:10.37,2013-02-08 08:33:00,
2013-02-08 09:38:00,30.6,26.9,28.67,North,350,5.8,5.8,86,0.00,OVC,FEW,0.00,0.0,WeatherDisplay:10.37,2013-02-08 08:38:00,
2013-02-08 09:43:00,30.6,26.9,28.67,North,350,5.8,5.8,86,0.00,OVC,FEW,0.00,0.0,WeatherDisplay:10.37,2013-02-08 08:43:00,
2013-02-08 09:48:00,30.4,26.7,28.67,North,0,4.6,4.9,86,0.00,OVC,FEW,0.00,0.0,WeatherDisplay:10.37,2013-02-08 08:48:00,
2013-02-08 09:53:00,31.1,26.8,28.67,North,350,5.8,5.8,84,0.00,OVC,FEW,0.00,0.0,WeatherDisplay:10.37,2013-02-08 08:53:00,
2013-02-08 09:58:00,31.1,26.8,28.67,North,350,4.6,4.9,84,0.00,OVC,FEW,0.00,0.0,WeatherDisplay:10.37,2013-02-08 08:58:00,
2013-02-08 10:03:00,31.5,26.9,28.67,NNE,20,4.6,5.1,83,0.00,OVC,FEW,0.00,0.0,WeatherDisplay:10.37,2013-02-08 09:03:00,
2013-02-08 10:08:00,31.8,27.2,28.67,WNW,295,3.5,4.0,83,0.00,OVC,FEW,0.00,0.0,WeatherDisplay:10.37,2013-02-08 09:08:00,
2013-02-08 10:13:00,31.8,27.0,28.67,NW,315,4.6,5.1,82,0.00,OVC,FEW,0.00,0.0,WeatherDisplay:10.37,2013-02-08 09:13:00,
2013-02-08 10:18:00,31.8,27.0,28.67,NW,315,4.6,5.1,82,0.00,OVC,FEW,0.00,0.0,WeatherDisplay:10.37,2013-02-08 09:18:00,
2013-02-08 10:23:00,32.0,27.1,28.67,North,0,1.1,1.7,82,0.00,OVC,FEW,0.00,0.0,WeatherDisplay:10.37,2013-02-08 09:23:00,
2013-02-08 10:28:00,32.0,27.1,28.67,WNW,295,1.1,1.7,82,0.00,OVC,FEW,0.00,0.0,WeatherDisplay:10.37,2013-02-08 09:28:00,
2013-02-08 10:33:00,32.0,26.8,28.67,NNE,15,4.6,4.7,81,0.00,OVC,FEW,0.00,0.0,WeatherDisplay:10.37,2013-02-08 09:33:00,
2013-02-08 10:38:00,32.0,26.8,28.64,WNW,290,4.6,4.6,81,0.00,OVC,FEW,0.00,0.0,WeatherDisplay:10.37,2013-02-08 09:38:00,
2013-02-08 10:43:00,32.0,26.8,28.64,WNW,290,4.6,4.6,81,0.00,OVC,FEW,0.00,0.0,WeatherDisplay:10.37,2013-02-08 09:43:00,
2013-02-08 10:48:00,32.0,26.8,28.64,NNE,20,3.5,3.5,81,0.00,OVC,FEW,0.00,0.0,WeatherDisplay:10.37,2013-02-08 09:48:00,
2013-02-08 10:53:00,32.0,26.8,28.67,NNW,345,3.5,3.5,81,0.00,OVC,FEW,0.00,0.0,WeatherDisplay:10.37,2013-02-08 09:53:00,
2013-02-08 10:58:00,32.0,26.5,28.67,NNW,340,5.8,5.8,80,0.00,OVC,FEW,0.00,0.0,WeatherDisplay:10.37,2013-02-08 09:58:00,
2013-02-08 11:03:00,32.4,26.9,28.67,NE,45,3.5,3.5,80,0.00,OVC,FEW,0.00,0.0,WeatherDisplay:10.37,2013-02-08 10:03:00,
2013-02-08 11:08:00,32.5,26.7,28.67,North,350,5.8,6.2,79,0.00,OVC,FEW,0.00,0.0,WeatherDisplay:10.37,2013-02-08 10:08:00,
2013-02-08 11:13:00,32.9,26.8,28.67,NNW,340,4.6,4.6,78,0.00,OVC,FEW,0.00,0.0,WeatherDisplay:10.37,2013-02-08 10:13:00,
2013-02-08 11:18:00,32.9,26.8,28.67,NNW,340,4.6,4.6,78,0.00,OVC,FEW,0.00,0.0,WeatherDisplay:10.37,2013-02-08 10:18:00,
2013-02-08 11:23:00,33.8,27.4,28.67,North,10,3.5,3.5,77,0.00,OVC,FEW,0.00,0.0,WeatherDisplay:10.37,2013-02-08 10:23:00,
2013-02-08 11:28:00,33.6,27.2,28.67,North,0,4.6,5.1,77,0.00,OVC,FEW,0.00,0.0,WeatherDisplay:10.37,2013-02-08 10:28:00,
2013-02-08 11:33:00,34.0,27.2,28.67,North,355,3.5,3.8,76,0.00,OVC,FEW,0.00,0.0,WeatherDisplay:10.37,2013-02-08 10:33:00,
2013-02-08 11:38:00,33.6,26.9,28.67,ENE,70,8.1,8.1,76,0.00,OVC,FEW,0.00,0.0,WeatherDisplay:10.37,2013-02-08 10:38:00,
2013-02-08 11:43:00,33.6,26.9,28.67,ENE,70,8.1,8.1,76,0.00,OVC,FEW,0.00,0.0,WeatherDisplay:10.37,2013-02-08 10:43:00,
2013-02-08 11:48:00,33.1,26.3,28.67,East,80,3.5,4.0,76,0.00,OVC,FEW,0.00,0.0,WeatherDisplay:10.37,2013-02-08 10:48:00,
2013-02-08 11:53:00,32.7,26.3,28.67,NNE,20,5.8,5.8,77,0.00,OVC,FEW,0.00,0.0,WeatherDisplay:10.37,2013-02-08 10:53:00,
2013-02-08 11:58:00,32.7,26.0,28.67,WNW,290,3.5,3.5,76,0.00,OVC,FEW,0.00,0.0,WeatherDisplay:10.37,2013-02-08 10:58:00,
2013-02-08 12:03:00,32.7,26.3,28.67,North,0,5.8,5.8,77,0.00,OVC,FEW,0.00,0.0,WeatherDisplay:10.37,2013-02-08 11:03:00,
2013-02-08 12:08:00,33.4,26.7,28.67,ENE,60,3.5,4.0,76,0.00,OVC,FEW,0.00,0.0,WeatherDisplay:10.37,2013-02-08 11:08:00,
2013-02-08 12:13:00,34.0,26.2,28.67,NW,315,6.9,7.1,73,0.00,OVC,FEW,0.00,0.0,WeatherDisplay:10.37,2013-02-08 11:13:00,
2013-02-08 12:18:00,34.0,26.2,28.67,NW,315,6.9,7.1,73,0.00,OVC,FEW,0.00,0.0,WeatherDisplay:10.37,2013-02-08 11:18:00,
2013-02-08 12:23:00,34.3,26.2,28.67,North,5,5.8,5.8,72,0.00,OVC,FEW,0.00,0.0,WeatherDisplay:10.37,2013-02-08 11:23:00,
2013-02-08 12:28:00,33.1,24.7,28.67,NW,305,4.6,5.1,71,0.00,OVC,FEW,0.00,0.0,WeatherDisplay:10.37,2013-02-08 11:28:00,
2013-02-08 12:33:00,33.1,24.7,28.67,North,0,3.5,4.0,71,0.00,OVC,FEW,0.00,0.0,WeatherDisplay:10.37,2013-02-08 11:33:00,
2013-02-08 12:38:00,34.3,25.6,28.64,North,0,2.3,2.6,70,0.00,OVC,FEW,0.00,0.0,WeatherDisplay:10.37,2013-02-08 11:38:00,
2013-02-08 12:43:00,34.3,25.6,28.64,North,0,2.3,2.6,70,0.00,OVC,FEW,0.00,0.0,WeatherDisplay:10.37,2013-02-08 11:43:00,
2013-02-08 12:48:00,35.2,25.7,28.64,North,350,5.8,5.8,68,0.00,OVC,FEW,0.00,0.0,WeatherDisplay:10.37,2013-02-08 11:48:00,
2013-02-08 12:53:00,35.8,25.9,28.67,NNE,30,3.5,3.5,67,0.00,OVC,FEW,0.00,0.0,WeatherDisplay:10.37,2013-02-08 11:53:00,
2013-02-08 12:58:00,34.7,25.2,28.67,North,0,5.8,6.0,68,0.00,OVC,FEW,0.00,0.0,WeatherDisplay:10.37,2013-02-08 11:58:00,
2013-02-08 13:03:00,34.7,25.6,28.67,NNE,20,5.8,5.8,69,0.00,OVC,FEW,0.00,0.0,WeatherDisplay:10.37,2013-02-08 12:03:00,
2013-02-08 13:08:00,36.0,26.1,28.67,ENE,60,2.3,2.8,67,0.00,OVC,FEW,0.00,0.0,WeatherDisplay:10.37,2013-02-08 12:08:00,
2013-02-08 13:13:00,36.1,26.2,28.67,NNE,25,5.8,5.8,67,0.00,OVC,FEW,0.00,0.0,WeatherDisplay:10.37,2013-02-08 12:13:00,
2013-02-08 13:18:00,36.1,26.2,28.67,NNE,25,5.8,5.8,67,0.00,OVC,FEW,0.00,0.0,WeatherDisplay:10.37,2013-02-08 12:18:00,
2013-02-08 13:23:00,36.3,26.0,28.67,NE,40,9.2,9.8,66,0.00,OVC,FEW,0.00,0.0,WeatherDisplay:10.37,2013-02-08 12:23:00,
2013-02-08 13:28:00,35.4,24.8,28.67,ENE,65,6.9,6.9,65,0.00,OVC,FEW,0.00,0.0,WeatherDisplay:10.37,2013-02-08 12:28:00,
2013-02-08 13:33:00,36.0,25.0,28.67,ENE,75,4.6,4.6,64,0.00,OVC,FEW,0.00,0.0,WeatherDisplay:10.37,2013-02-08 12:33:00,
2013-02-08 13:38:00,36.0,25.0,28.64,NE,55,3.5,3.5,64,0.00,OVC,FEW,0.00,0.0,WeatherDisplay:10.37,2013-02-08 12:38:00,
2013-02-08 13:43:00,36.0,25.0,28.64,NE,55,3.5,3.5,64,0.00,OVC,FEW,0.00,0.0,WeatherDisplay:10.37,2013-02-08 12:43:00,
2013-02-08 13:48:00,36.1,24.4,28.64,NNW,345,6.9,7.3,62,0.00,OVC,FEW,0.00,0.0,WeatherDisplay:10.37,2013-02-08 12:48:00,
2013-02-08 13:53:00,36.0,24.2,28.67,NE,35,6.9,7.0,62,0.00,OVC,FEW,0.00,0.0,WeatherDisplay:10.37,2013-02-08 12:53:00,
2013-02-08 13:58:00,36.1,24.0,28.67,ENE,60,8.1,8.1,61,0.00,OVC,FEW,0.00,0.0,WeatherDisplay:10.37,2013-02-08 12:58:00,
2013-02-08 14:03:00,35.2,23.1,28.67,NE,40,6.9,7.0,61,0.00,OVC,FEW,0.00,0.0,WeatherDisplay:10.37,2013-02-08 13:03:00,
2013-02-08 14:08:00,35.2,23.1,28.67,NE,40,6.9,7.0,61,0.00,OVC,FEW,0.00,0.0,WeatherDisplay:10.37,2013-02-08 13:08:00,
2013-02-08 14:13:00,34.9,23.9,28.67,NNW,340,2.3,2.3,64,0.00,OVC,FEW,0.00,0.0,WeatherDisplay:10.37,2013-02-08 13:13:00,
2013-02-08 14:18:00,34.9,23.9,28.67,NNW,340,2.3,2.3,64,0.00,OVC,FEW,0.00,0.0,WeatherDisplay:10.37,2013-02-08 13:18:00,
2013-02-08 14:23:00,34.7,24.1,28.64,NNW,335,4.6,4.6,65,0.00,OVC,FEW,0.00,0.0,WeatherDisplay:10.37,2013-02-08 13:23:00,
2013-02-08 14:28:00,34.5,24.3,28.64,NE,40,2.3,2.3,66,0.00,OVC,FEW,0.00,0.0,WeatherDisplay:10.37,2013-02-08 13:28:00,
2013-02-08 14:33:00,34.5,24.3,28.64,NNE,15,3.5,3.5,66,0.00,OVC,FEW,0.00,0.0,WeatherDisplay:10.37,2013-02-08 13:33:00,
2013-02-08 14:38:00,34.3,23.8,28.67,North,10,4.6,4.7,65,0.00,OVC,FEW,0.00,0.0,WeatherDisplay:10.37,2013-02-08 13:38:00,
2013-02-08 14:43:00,34.3,23.8,28.67,North,10,4.6,4.7,65,0.00,OVC,FEW,0.00,0.0,WeatherDisplay:10.37,2013-02-08 13:43:00,
2013-02-08 14:48:00,34.5,24.3,28.67,North,5,4.6,4.9,66,0.01,RA,FEW,0.01,0.0,WeatherDisplay:10.37,2013-02-08 13:48:00,
2013-02-08 14:53:00,34.5,24.0,28.67,NNE,20,2.3,2.3,65,0.01,OVC,FEW,0.01,0.0,WeatherDisplay:10.37,2013-02-08 13:53:00,
2013-02-08 14:58:00,34.7,24.1,28.67,NNE,30,1.1,1.7,65,0.01,OVC,FEW,0.01,0.0,WeatherDisplay:10.37,2013-02-08 13:58:00,
2013-02-08 15:04:00,34.7,24.1,28.67,NNW,345,2.3,2.3,65,0.01,OVC,FEW,0.01,0.0,WeatherDisplay:10.37,2013-02-08 14:04:00,
2013-02-08 15:09:00,34.5,23.6,28.67,NNE,20,1.1,1.7,64,0.01,OVC,FEW,0.01,0.0,WeatherDisplay:10.37,2013-02-08 14:09:00,
2013-02-08 15:14:00,34.5,23.6,28.67,NE,45,1.1,1.7,64,0.01,OVC,FEW,0.01,0.0,WeatherDisplay:10.37,2013-02-08 14:14:00,
2013-02-08 15:19:00,34.5,23.6,28.67,NE,45,1.1,1.7,64,0.01,OVC,FEW,0.01,0.0,WeatherDisplay:10.37,2013-02-08 14:19:00,
2013-02-08 15:24:00,34.3,23.4,28.67,ENE,60,2.3,2.3,64,0.01,OVC,FEW,0.01,0.0,WeatherDisplay:10.37,2013-02-08 14:24:00,
2013-02-08 15:29:00,34.0,23.4,28.67,ESE,110,4.6,4.6,65,0.01,OVC,FEW,0.01,0.0,WeatherDisplay:10.37,2013-02-08 14:29:00,
2013-02-08 15:34:00,33.6,23.5,28.67,NNE,25,2.3,2.6,66,0.01,OVC,FEW,0.01,0.0,WeatherDisplay:10.37,2013-02-08 14:34:00,
2013-02-08 15:39:00,33.6,23.5,28.67,North,10,4.6,4.6,66,0.01,OVC,FEW,0.01,0.0,WeatherDisplay:10.37,2013-02-08 14:39:00,
2013-02-08 15:44:00,33.6,23.8,28.67,NE,40,5.8,5.8,67,0.00,OVC,FEW,0.01,0.0,WeatherDisplay:10.37,2013-02-08 14:44:00,
2013-02-08 15:49:00,33.6,23.8,28.67,NE,40,5.8,5.8,67,0.00,OVC,FEW,0.01,0.0,WeatherDisplay:10.37,2013-02-08 14:49:00,
2013-02-08 15:54:00,33.6,24.2,28.67,NNE,25,2.3,2.3,68,0.00,OVC,FEW,0.01,0.0,WeatherDisplay:10.37,2013-02-08 14:54:00,
2013-02-08 15:59:00,33.6,24.2,28.67,ENE,60,1.1,1.5,68,0.00,OVC,FEW,0.01,0.0,WeatherDisplay:10.37,2013-02-08 14:59:00,
2013-02-08 16:04:00,33.6,24.2,28.67,NE,35,1.1,1.3,68,0.00,OVC,FEW,0.01,0.0,WeatherDisplay:10.37,2013-02-08 15:04:00,
2013-02-08 16:09:00,33.6,24.5,28.67,ESE,115,0.0,0.0,69,0.00,OVC,FEW,0.01,0.0,WeatherDisplay:10.37,2013-02-08 15:09:00,
2013-02-08 16:14:00,33.6,24.5,28.67,NNE,20,1.1,1.3,69,0.00,OVC,FEW,0.01,0.0,WeatherDisplay:10.37,2013-02-08 15:14:00,
2013-02-08 16:19:00,33.6,24.5,28.67,NNE,20,1.1,1.3,69,0.00,OVC,FEW,0.01,0.0,WeatherDisplay:10.37,2013-02-08 15:19:00,
2013-02-08 16:24:00,33.4,24.4,28.67,NW,310,0.0,0.0,69,0.00,OVC,FEW,0.01,0.0,WeatherDisplay:10.37,2013-02-08 15:24:00,
2013-02-08 16:29:00,33.4,24.7,28.67,WNW,285,0.0,0.0,70,0.00,OVC,FEW,0.01,0.0,WeatherDisplay:10.37,2013-02-08 15:29:00,
2013-02-08 16:34:00,33.3,24.2,28.67,NW,310,3.5,3.8,69,0.00,OVC,FEW,0.01,0.0,WeatherDisplay:10.37,2013-02-08 15:34:00,
2013-02-08 16:39:00,33.1,24.4,28.67,NNW,345,0.0,0.2,70,0.00,OVC,FEW,0.01,0.0,WeatherDisplay:10.37,2013-02-08 15:39:00,
2013-02-08 16:44:00,32.9,24.2,28.67,WNW,290,0.0,0.0,70,0.00,OVC,FEW,0.01,0.0,WeatherDisplay:10.37,2013-02-08 15:44:00,
2013-02-08 16:49:00,32.9,24.2,28.67,WNW,290,0.0,0.0,70,0.00,OVC,FEW,0.01,0.0,WeatherDisplay:10.37,2013-02-08 15:49:00,
2013-02-08 16:54:00,32.5,24.2,28.67,WNW,290,0.0,0.0,71,0.00,OVC,FEW,0.01,0.0,WeatherDisplay:10.37,2013-02-08 15:54:00,
2013-02-08 16:59:00,32.2,24.5,28.67,WNW,290,0.0,0.0,73,0.00,OVC,FEW,0.01,0.0,WeatherDisplay:10.37,2013-02-08 15:59:00,
2013-02-08 17:04:00,32.2,24.5,28.67,WNW,290,0.0,0.0,73,0.00,OVC,FEW,0.01,0.0,WeatherDisplay:10.37,2013-02-08 16:04:00,
2013-02-08 17:09:00,32.2,24.8,28.70,NW,315,1.1,1.1,74,0.00,OVC,FEW,0.01,0.0,WeatherDisplay:10.37,2013-02-08 16:09:00,
2013-02-08 17:14:00,32.2,25.1,28.70,North,350,0.0,0.0,75,0.00,OVC,FEW,0.01,0.0,WeatherDisplay:10.37,2013-02-08 16:14:00,
2013-02-08 17:19:00,32.2,25.1,28.70,North,350,0.0,0.0,75,0.00,OVC,FEW,0.01,0.0,WeatherDisplay:10.37,2013-02-08 16:19:00,
2013-02-08 17:24:00,32.0,25.0,28.67,NNW,340,0.0,0.0,75,0.00,OVC,FEW,0.01,0.0,WeatherDisplay:10.37,2013-02-08 16:24:00,
2013-02-08 17:29:00,32.0,25.3,28.67,NW,305,0.0,0.0,76,0.00,OVC,FEW,0.01,0.0,WeatherDisplay:10.37,2013-02-08 16:29:00,
2013-02-08 17:34:00,32.0,25.6,28.67,WNW,290,0.0,0.0,77,0.00,OVC,FEW,0.01,0.0,WeatherDisplay:10.37,2013-02-08 16:34:00,
2013-02-08 17:39:00,31.6,25.6,28.67,West,275,0.0,0.0,78,0.00,OVC,FEW,0.01,0.0,WeatherDisplay:10.37,2013-02-08 16:39:00,
2013-02-08 17:44:00,31.5,26.0,28.67,West,275,0.0,0.0,80,0.00,CLR,FEW,0.01,0.0,WeatherDisplay:10.37,2013-02-08 16:44:00,
2013-02-08 17:49:00,31.5,26.0,28.67,West,275,0.0,0.0,80,0.00,CLR,FEW,0.01,0.0,WeatherDisplay:10.37,2013-02-08 16:49:00,
2013-02-08 17:54:00,31.1,25.7,28.67,NW,305,0.0,0.0,80,0.00,CLR,FEW,0.01,0.0,WeatherDisplay:10.37,2013-02-08 16:54:00,
2013-02-08 17:59:00,30.6,25.4,28.67,NW,305,0.0,0.0,81,0.00,CLR,FEW,0.01,0.0,WeatherDisplay:10.37,2013-02-08 16:59:00,
2013-02-08 18:04:00,30.6,25.4,28.67,NW,305,0.0,0.0,81,0.00,CLR,FEW,0.01,0.0,WeatherDisplay:10.37,2013-02-08 17:04:00,
2013-02-08 18:09:00,30.4,25.5,28.70,NW,315,0.0,0.0,82,0.00,CLR,FEW,0.01,0.0,WeatherDisplay:10.37,2013-02-08 17:09:00,
2013-02-08 18:14:00,30.0,25.2,28.70,NW,310,0.0,0.0,82,0.00,CLR,FEW,0.01,0.0,WeatherDisplay:10.37,2013-02-08 17:14:00,
2013-02-08 18:19:00,30.0,25.2,28.70,NW,310,0.0,0.0,82,0.00,CLR,FEW,0.01,0.0,WeatherDisplay:10.37,2013-02-08 17:19:00,
2013-02-08 18:24:00,29.8,25.3,28.70,West,280,0.0,0.0,83,0.00,CLR,FEW,0.01,0.0,WeatherDisplay:10.37,2013-02-08 17:24:00,
2013-02-08 18:29:00,30.0,25.5,28.70,NW,320,0.0,0.0,83,0.00,CLR,FEW,0.01,0.0,WeatherDisplay:10.37,2013-02-08 17:29:00,
2013-02-08 18:34:00,30.0,25.8,28.70,NW,325,0.0,0.0,84,0.00,CLR,FEW,0.01,0.0,WeatherDisplay:10.37,2013-02-08 17:34:00,
2013-02-08 18:39:00,30.0,25.8,28.70,NNW,330,0.0,0.0,84,0.00,CLR,FEW,0.01,0.0,WeatherDisplay:10.37,2013-02-08 17:39:00,
2013-02-08 18:45:00,30.2,26.2,28.70,NNW,335,0.0,0.0,85,0.00,CLR,FEW,0.01,0.0,WeatherDisplay:10.37,2013-02-08 17:45:00,
2013-02-08 18:50:00,30.2,26.2,28.70,NNW,335,0.0,0.0,85,0.00,CLR,FEW,0.01,0.0,WeatherDisplay:10.37,2013-02-08 17:50:00,
2013-02-08 18:55:00,30.4,26.7,28.70,NW,325,0.0,0.0,86,0.00,CLR,FEW,0.01,0.0,WeatherDisplay:10.37,2013-02-08 17:55:00,
2013-02-08 19:00:00,30.4,26.7,28.70,NNW,330,0.0,0.0,86,0.00,CLR,FEW,0.01,0.0,WeatherDisplay:10.37,2013-02-08 18:00:00,
2013-02-08 19:05:00,30.6,27.2,28.70,NNW,330,0.0,0.0,87,0.00,CLR,FEW,0.01,0.0,WeatherDisplay:10.37,2013-02-08 18:05:00,
2013-02-08 19:10:00,30.6,27.4,28.70,NW,325,0.0,0.0,88,0.00,CLR,FEW,0.01,0.0,WeatherDisplay:10.37,2013-02-08 18:10:00,
2013-02-08 19:15:00,30.6,27.4,28.70,NW,325,0.0,0.0,88,0.00,CLR,FEW,0.01,0.0,WeatherDisplay:10.37,2013-02-08 18:15:00,
2013-02-08 19:20:00,30.6,27.4,28.70,NW,325,0.0,0.0,88,0.00,CLR,FEW,0.01,0.0,WeatherDisplay:10.37,2013-02-08 18:20:00,
2013-02-08 19:25:00,30.6,27.4,28.70,NNW,340,0.0,0.0,88,0.00,CLR,FEW,0.01,0.0,WeatherDisplay:10.37,2013-02-08 18:25:00,
2013-02-08 19:30:00,30.6,27.4,28.70,NW,310,0.0,0.0,88,0.00,CLR,FEW,0.01,0.0,WeatherDisplay:10.37,2013-02-08 18:30:00,
2013-02-08 19:35:00,30.4,27.3,28.70,NW,310,0.0,0.0,88,0.00,CLR,FEW,0.01,0.0,WeatherDisplay:10.37,2013-02-08 18:35:00,
2013-02-08 19:40:00,30.4,27.3,28.70,North,5,0.0,0.0,88,0.00,CLR,FEW,0.01,0.0,WeatherDisplay:10.37,2013-02-08 18:40:00,
2013-02-08 19:45:00,30.4,27.3,28.70,WNW,290,0.0,0.0,88,0.00,CLR,FEW,0.01,0.0,WeatherDisplay:10.37,2013-02-08 18:45:00,
2013-02-08 19:50:00,30.4,27.3,28.70,WNW,290,0.0,0.0,88,0.00,CLR,FEW,0.01,0.0,WeatherDisplay:10.37,2013-02-08 18:50:00,
2013-02-08 19:55:00,30.4,27.3,28.70,WNW,290,0.0,0.0,88,0.00,CLR,FEW,0.01,0.0,WeatherDisplay:10.37,2013-02-08 18:55:00,
2013-02-08 20:00:00,30.4,27.3,28.70,WNW,300,0.0,0.0,88,0.00,CLR,FEW,0.01,0.0,WeatherDisplay:10.37,2013-02-08 19:00:00,
2013-02-08 20:05:00,30.4,27.3,28.70,NW,320,0.0,0.0,88,0.00,CLR,FEW,0.01,0.0,WeatherDisplay:10.37,2013-02-08 19:05:00,
2013-02-08 20:10:00,30.4,27.3,28.70,West,265,0.0,0.0,88,0.00,CLR,FEW,0.01,0.0,WeatherDisplay:10.37,2013-02-08 19:10:00,
2013-02-08 20:15:00,30.0,26.9,28.70,West,265,0.0,0.0,88,0.00,CLR,FEW,0.01,0.0,WeatherDisplay:10.37,2013-02-08 19:15:00,
2013-02-08 20:20:00,30.0,27.2,28.70,WNW,295,0.0,0.0,89,0.00,CLR,FEW,0.01,0.0,WeatherDisplay:10.37,2013-02-08 19:20:00,
2013-02-08 20:25:00,30.0,27.2,28.70,WNW,295,0.0,0.0,89,0.00,CLR,FEW,0.01,0.0,WeatherDisplay:10.37,2013-02-08 19:25:00,
2013-02-08 20:30:00,29.5,26.6,28.70,WSW,250,0.0,0.0,89,0.00,CLR,FEW,0.01,0.0,WeatherDisplay:10.37,2013-02-08 19:30:00,
2013-02-08 20:35:00,29.1,26.3,28.70,North,350,0.0,0.0,89,0.00,CLR,FEW,0.01,0.0,WeatherDisplay:10.37,2013-02-08 19:35:00,
2013-02-08 20:40:00,28.6,25.8,28.73,NW,325,0.0,0.0,89,0.00,CLR,FEW,0.01,0.0,WeatherDisplay:10.37,2013-02-08 19:40:00,
2013-02-08 20:45:00,28.9,26.4,28.73,NE,40,3.5,4.0,90,0.00,CLR,FEW,0.01,0.0,WeatherDisplay:10.37,2013-02-08 19:45:00,
2013-02-08 20:51:00,29.7,26.8,28.70,North,5,3.5,3.5,89,0.00,CLR,FEW,0.01,0.0,WeatherDisplay:10.37,2013-02-08 19:51:00,
2013-02-08 20:56:00,29.8,26.7,28.70,NE,50,3.5,3.5,88,0.00,CLR,FEW,0.01,0.0,WeatherDisplay:10.37,2013-02-08 19:56:00,
2013-02-08 21:01:00,29.8,26.7,28.70,NE,50,3.5,3.5,88,0.00,CLR,FEW,0.01,0.0,WeatherDisplay:10.37,2013-02-08 20:01:00,
2013-02-08 21:06:00,29.8,26.4,28.70,NW,320,2.3,2.3,87,0.00,CLR,FEW,0.01,0.0,WeatherDisplay:10.37,2013-02-08 20:06:00,
2013-02-08 21:11:00,29.8,26.4,28.70,NNW,335,4.6,4.6,87,0.00,CLR,FEW,0.01,0.0,WeatherDisplay:10.37,2013-02-08 20:11:00,
2013-02-08 21:16:00,29.7,26.3,28.70,North,355,1.1,1.1,87,0.00,CLR,FEW,0.01,0.0,WeatherDisplay:10.37,2013-02-08 20:16:00,
2013-02-08 21:21:00,28.9,25.8,28.73,NE,45,2.3,2.6,88,0.00,CLR,FEW,0.01,0.0,WeatherDisplay:10.37,2013-02-08 20:21:00,
2013-02-08 21:26:00,28.8,25.7,28.73,NNE,30,1.5,1.5,88,0.00,CLR,FEW,0.01,0.0,WeatherDisplay:10.37,2013-02-08 20:26:00,
2013-02-08 21:31:00,28.8,25.7,28.73,NNE,30,1.1,1.5,88,0.00,CLR,FEW,0.01,0.0,WeatherDisplay:10.37,2013-02-08 20:31:00,
2013-02-08 21:36:00,28.6,25.8,28.73,NNE,15,3.5,3.5,89,0.00,CLR,FEW,0.01,0.0,WeatherDisplay:10.37,2013-02-08 20:36:00,
2013-02-08 21:41:00,28.2,25.4,28.73,North,5,1.1,1.3,89,0.00,CLR,FEW,0.01,0.0,WeatherDisplay:10.37,2013-02-08 20:41:00,
2013-02-08 21:46:00,28.0,25.5,28.73,NNE,15,0.0,0.0,90,0.00,CLR,FEW,0.01,0.0,WeatherDisplay:10.37,2013-02-08 20:46:00,
2013-02-08 21:51:00,28.2,25.7,28.73,NE,50,1.1,1.5,90,0.00,CLR,FEW,0.01,0.0,WeatherDisplay:10.37,2013-02-08 20:51:00,
2013-02-08 21:56:00,27.9,25.3,28.73,North,0,0.0,0.0,90,0.00,CLR,FEW,0.01,0.0,WeatherDisplay:10.37,2013-02-08 20:56:00,
2013-02-08 22:01:00,27.9,25.3,28.73,NW,325,0.0,0.0,90,0.00,CLR,FEW,0.01,0.0,WeatherDisplay:10.37,2013-02-08 21:01:00,
2013-02-08 22:06:00,27.9,25.3,28.73,NW,325,0.0,0.0,90,0.00,CLR,FEW,0.01,0.0,WeatherDisplay:10.37,2013-02-08 21:06:00,
2013-02-08 22:11:00,27.9,25.6,28.73,West,265,0.0,0.0,91,0.00,CLR,FEW,0.01,0.0,WeatherDisplay:10.37,2013-02-08 21:11:00,
2013-02-08 22:16:00,27.7,25.4,28.73,NW,310,0.0,0.0,91,0.00,CLR,FEW,0.01,0.0,WeatherDisplay:10.37,2013-02-08 21:16:00,
2013-02-08 22:21:00,26.8,24.5,28.73,NW,320,0.0,0.0,91,0.00,CLR,FEW,0.01,0.0,WeatherDisplay:10.37,2013-02-08 21:21:00,
2013-02-08 22:26:00,26.6,24.3,28.73,NW,315,0.0,0.0,91,0.00,CLR,FEW,0.01,0.0,WeatherDisplay:10.37,2013-02-08 21:26:00,
2013-02-08 22:31:00,26.6,24.3,28.73,NW,315,0.0,0.0,91,0.00,CLR,FEW,0.01,0.0,WeatherDisplay:10.37,2013-02-08 21:31:00,
2013-02-08 22:36:00,26.4,24.1,28.73,WSW,250,0.0,0.0,91,0.00,CLR,FEW,0.01,0.0,WeatherDisplay:10.37,2013-02-08 21:36:00,
2013-02-08 22:41:00,26.2,24.2,28.73,WSW,255,0.0,0.0,92,0.00,CLR,FEW,0.01,0.0,WeatherDisplay:10.37,2013-02-08 21:41:00,
2013-02-08 22:46:00,25.7,23.7,28.73,WSW,255,0.0,0.0,92,0.00,CLR,FEW,0.01,0.0,WeatherDisplay:10.37,2013-02-08 21:46:00,
2013-02-08 22:51:00,25.5,23.5,28.73,NW,325,0.0,0.0,92,0.00,CLR,FEW,0.01,0.0,WeatherDisplay:10.37,2013-02-08 21:51:00,
2013-02-08 22:56:00,25.5,23.5,28.73,NW,310,0.0,0.0,92,0.00,CLR,FEW,0.01,0.0,WeatherDisplay:10.37,2013-02-08 21:56:00,
2013-02-08 23:01:00,25.2,23.2,28.73,NW,315,0.0,0.0,92,0.00,CLR,FEW,0.01,0.0,WeatherDisplay:10.37,2013-02-08 22:01:00,
2013-02-08 23:06:00,25.2,23.2,28.73,NW,315,0.0,0.0,92,0.00,CLR,FEW,0.01,0.0,WeatherDisplay:10.37,2013-02-08 22:06:00,
2013-02-08 23:11:00,24.4,22.5,28.73,NW,325,0.0,0.0,92,0.00,CLR,FEW,0.01,0.0,WeatherDisplay:10.37,2013-02-08 22:11:00,
2013-02-08 23:16:00,24.1,22.1,28.73,NW,305,0.0,0.0,92,0.00,CLR,FEW,0.01,0.0,WeatherDisplay:10.37,2013-02-08 22:16:00,
2013-02-08 23:21:00,24.8,23.1,28.73,NW,310,0.0,0.0,93,0.00,CLR,FEW,0.01,0.0,WeatherDisplay:10.37,2013-02-08 22:21:00,
2013-02-08 23:26:00,24.6,22.9,28.73,NW,310,0.0,0.0,93,0.00,CLR,FEW,0.01,0.0,WeatherDisplay:10.37,2013-02-08 22:26:00,
2013-02-08 23:31:00,24.6,22.9,28.73,NW,310,0.0,0.0,93,0.00,CLR,FEW,0.01,0.0,WeatherDisplay:10.37,2013-02-08 22:31:00,
2013-02-08 23:36:00,24.6,22.9,28.73,West,270,0.0,0.0,93,0.00,CLR,FEW,0.01,0.0,WeatherDisplay:10.37,2013-02-08 22:36:00,
2013-02-08 23:41:00,24.4,22.7,28.73,West,270,0.0,0.0,93,0.00,CLR,FEW,0.01,0.0,WeatherDisplay:10.37,2013-02-08 22:41:00,
2013-02-08 23:46:00,25.0,23.2,28.73,WSW,250,0.0,0.0,93,0.00,CLR,FEW,0.01,0.0,WeatherDisplay:10.37,2013-02-08 22:46:00,
2013-02-08 23:51:00,25.0,23.2,28.73,WSW,245,0.0,0.0,93,0.00,CLR,FEW,0.01,0.0,WeatherDisplay:10.37,2013-02-08 22:51:00,
2013-02-08 23:56:00,25.0,23.2,28.73,SW,230,0.0,0.0,93,0.00,CLR,FEW,0.01,0.0,WeatherDisplay:10.37,2013-02-08 22:56:00,